createdAt,value
2023-03-05T00:00:58.416Z,21.07
2023-03-05T00:01:59.085Z,20.99
2023-03-05T00:02:59.767Z,21.07
2023-03-05T00:04:00.436Z,21.03
2023-03-05T00:05:01.018Z,21.12
2023-03-05T00:06:01.617Z,21.03
2023-03-05T00:07:02.207Z,21.06
2023-03-05T00:08:02.803Z,21.07
2023-03-05T00:09:03.462Z,21.06
2023-03-05T00:10:04.126Z,21.09
2023-03-05T00:11:04.724Z,21.17
2023-03-05T00:12:05.320Z,21.11
2023-03-05T00:13:05.967Z,21.11
2023-03-05T00:14:06.675Z,21.11
2023-03-05T00:15:07.282Z,21.11
2023-03-05T00:16:07.923Z,21.15
2023-03-05T00:17:08.560Z,21.14
2023-03-05T00:18:09.229Z,21.09
2023-03-05T00:19:09.836Z,21.07
2023-03-05T00:20:10.443Z,21.07
2023-03-05T00:21:11.037Z,21.05
2023-03-05T00:22:11.637Z,21.03
2023-03-05T00:23:12.246Z,21.06
2023-03-05T00:24:12.938Z,21.02
2023-03-05T00:25:13.527Z,20.96
2023-03-05T00:26:14.131Z,20.96
2023-03-05T00:27:14.849Z,20.92
2023-03-05T00:28:15.529Z,20.90
2023-03-05T00:29:16.127Z,20.87
2023-03-05T00:31:17.568Z,20.81
2023-03-05T00:32:18.430Z,20.81
2023-03-05T00:33:19.085Z,20.74
2023-03-05T00:34:19.771Z,20.75
2023-03-05T00:35:20.428Z,20.74
2023-03-05T00:36:21.165Z,20.72
2023-03-05T00:37:21.747Z,20.58
2023-03-05T00:38:22.355Z,20.62
2023-03-05T00:39:22.964Z,20.69
2023-03-05T00:40:23.582Z,20.66
2023-03-05T00:41:24.177Z,20.59
2023-03-05T00:42:24.819Z,20.62
2023-03-05T00:43:25.419Z,20.65
2023-03-05T00:44:26.087Z,20.56
2023-03-05T00:45:26.691Z,20.48
2023-03-05T00:46:27.424Z,20.55
2023-03-05T00:47:27.939Z,20.44
2023-03-05T00:48:28.548Z,20.50
2023-03-05T00:49:29.148Z,20.43
2023-03-05T00:50:29.771Z,20.41
2023-03-05T00:51:30.355Z,20.41
2023-03-05T00:52:30.958Z,20.41
2023-03-05T00:53:31.560Z,20.36
2023-03-05T00:54:32.164Z,20.34
2023-03-05T00:55:32.765Z,20.29
2023-03-05T00:56:33.370Z,20.31
2023-03-05T00:57:33.981Z,20.37
2023-03-05T00:58:34.582Z,20.31
2023-03-05T00:59:35.182Z,20.28
2023-03-05T01:00:35.780Z,20.19
2023-03-05T01:01:36.433Z,20.29
2023-03-05T01:02:37.066Z,20.22
2023-03-05T01:03:37.712Z,20.13
2023-03-05T01:04:38.418Z,20.16
2023-03-05T01:05:39.071Z,20.14
2023-03-05T01:06:39.683Z,20.19
2023-03-05T01:07:40.290Z,20.14
2023-03-05T01:08:40.901Z,20.22
2023-03-05T01:09:41.493Z,20.11
2023-03-05T01:10:42.098Z,20.14
2023-03-05T01:11:42.895Z,20.09
2023-03-05T01:12:43.497Z,20.03
2023-03-05T01:13:44.102Z,20.02
2023-03-05T01:14:44.762Z,20.07
2023-03-05T01:15:45.431Z,20.04
2023-03-05T01:16:46.058Z,20.04
2023-03-05T01:17:46.654Z,20.09
2023-03-05T01:18:47.258Z,20.06
2023-03-05T01:19:47.909Z,19.99
2023-03-05T01:20:48.510Z,20.04
2023-03-05T01:21:49.113Z,19.94
2023-03-05T01:22:49.720Z,20.04
2023-03-05T01:23:50.322Z,20.00
2023-03-05T01:24:50.918Z,19.89
2023-03-05T01:25:51.519Z,19.95
2023-03-05T01:26:52.127Z,19.91
2023-03-05T01:27:52.738Z,20.00
2023-03-05T01:28:53.327Z,20.00
2023-03-05T01:29:53.933Z,19.91
2023-03-05T01:30:54.529Z,20.02
2023-03-05T01:31:55.187Z,20.02
2023-03-05T01:32:55.776Z,19.89
2023-03-05T01:33:56.483Z,19.92
2023-03-05T01:34:57.096Z,19.88
2023-03-05T01:35:57.720Z,19.86
2023-03-05T01:36:58.330Z,19.89
2023-03-05T01:37:58.925Z,19.91
2023-03-05T01:38:59.530Z,19.88
2023-03-05T01:40:00.982Z,19.85
2023-03-05T01:41:01.575Z,19.84
2023-03-05T01:42:02.239Z,19.88
2023-03-05T01:43:02.843Z,19.88
2023-03-05T01:44:03.507Z,19.86
2023-03-05T01:45:04.146Z,19.85
2023-03-05T01:46:04.803Z,19.81
2023-03-05T01:47:05.392Z,19.71
2023-03-05T01:48:06.043Z,19.79
2023-03-05T01:49:06.642Z,19.77
2023-03-05T01:50:07.260Z,19.85
2023-03-05T01:51:07.855Z,19.81
2023-03-05T01:52:08.454Z,19.76
2023-03-05T01:53:09.060Z,19.74
2023-03-05T01:54:09.656Z,19.71
2023-03-05T01:55:10.262Z,19.77
2023-03-05T01:56:10.869Z,19.79
2023-03-05T01:57:11.549Z,19.70
2023-03-05T01:58:12.146Z,19.73
2023-03-05T01:59:12.754Z,19.74
2023-03-05T02:00:13.362Z,19.76
2023-03-05T02:01:14.027Z,19.76
2023-03-05T02:02:14.653Z,19.70
2023-03-05T02:03:15.252Z,19.64
2023-03-05T02:04:15.847Z,19.63
2023-03-05T02:05:16.450Z,19.66
2023-03-05T02:06:17.047Z,19.64
2023-03-05T02:07:17.642Z,19.58
2023-03-05T02:08:18.251Z,19.58
2023-03-05T02:09:18.849Z,19.69
2023-03-05T02:10:19.446Z,19.62
2023-03-05T02:11:20.044Z,19.63
2023-03-05T02:12:20.650Z,19.58
2023-03-05T02:13:21.255Z,19.64
2023-03-05T02:14:21.864Z,19.59
2023-03-05T02:15:22.454Z,19.54
2023-03-05T02:16:23.070Z,19.55
2023-03-05T02:17:23.696Z,19.47
2023-03-05T02:18:24.302Z,19.55
2023-03-05T02:19:24.893Z,19.62
2023-03-05T02:20:26.567Z,19.45
2023-03-05T02:21:27.167Z,19.56
2023-03-05T02:22:40.378Z,19.55
2023-03-05T02:23:40.974Z,19.52
2023-03-05T02:25:34.192Z,19.56
2023-03-05T02:26:34.988Z,19.41
2023-03-05T02:27:35.582Z,19.49
2023-03-05T02:28:36.186Z,19.40
2023-03-05T02:29:36.801Z,19.48
2023-03-05T02:30:37.458Z,19.41
2023-03-05T02:31:38.079Z,19.51
2023-03-05T02:32:39.520Z,19.44
2023-03-05T02:33:40.115Z,19.44
2023-03-05T02:34:40.707Z,19.44
2023-03-05T02:35:41.365Z,19.52
2023-03-05T02:36:41.955Z,19.47
2023-03-05T02:37:42.624Z,19.44
2023-03-05T02:38:43.236Z,19.49
2023-03-05T02:39:44.709Z,19.45
2023-03-05T02:40:46.155Z,19.45
2023-03-05T02:41:46.759Z,19.41
2023-03-05T02:42:47.415Z,19.41
2023-03-05T02:43:48.024Z,19.40
2023-03-05T02:44:48.632Z,19.44
2023-03-05T02:45:49.298Z,19.39
2023-03-05T02:46:49.915Z,19.37
2023-03-05T02:47:50.523Z,19.41
2023-03-05T02:48:51.199Z,19.36
2023-03-05T02:49:51.787Z,19.39
2023-03-05T02:50:52.386Z,19.30
2023-03-05T02:51:52.991Z,19.27
2023-03-05T02:52:53.599Z,19.40
2023-03-05T02:53:54.201Z,19.34
2023-03-05T02:54:54.898Z,19.33
2023-03-05T02:55:55.491Z,19.21
2023-03-05T02:56:56.103Z,19.24
2023-03-05T02:57:56.817Z,19.29
2023-03-05T02:58:57.424Z,19.24
2023-03-05T02:59:58.115Z,19.29
2023-03-05T03:00:58.749Z,19.24
2023-03-05T03:01:59.349Z,19.22
2023-03-05T03:02:59.966Z,19.26
2023-03-05T03:04:00.596Z,19.24
2023-03-05T03:05:01.177Z,19.29
2023-03-05T03:06:01.773Z,19.30
2023-03-05T03:07:02.521Z,19.31
2023-03-05T03:08:03.126Z,19.21
2023-03-05T03:09:03.733Z,19.30
2023-03-05T03:10:04.343Z,19.30
2023-03-05T03:11:04.940Z,19.29
2023-03-05T03:12:05.544Z,19.27
2023-03-05T03:13:06.152Z,19.18
2023-03-05T03:14:06.765Z,19.22
2023-03-05T03:15:07.350Z,19.18
2023-03-05T03:16:07.956Z,19.22
2023-03-05T03:17:08.614Z,19.19
2023-03-05T03:18:09.233Z,19.19
2023-03-05T03:19:09.831Z,19.21
2023-03-05T03:20:10.445Z,19.19
2023-03-05T03:21:11.048Z,19.21
2023-03-05T03:22:11.641Z,19.21
2023-03-05T03:23:12.246Z,19.24
2023-03-05T03:24:12.849Z,19.26
2023-03-05T03:25:13.458Z,19.16
2023-03-05T03:26:14.055Z,19.19
2023-03-05T03:27:14.651Z,19.19
2023-03-05T03:28:15.260Z,19.18
2023-03-05T03:29:15.938Z,19.18
2023-03-05T03:30:16.532Z,19.16
2023-03-05T03:31:17.247Z,19.19
2023-03-05T03:32:17.961Z,19.21
2023-03-05T03:33:18.561Z,19.11
2023-03-05T03:34:19.167Z,19.14
2023-03-05T03:35:19.793Z,19.21
2023-03-05T03:36:20.393Z,19.14
2023-03-05T03:37:20.989Z,19.15
2023-03-05T03:38:21.587Z,19.18
2023-03-05T03:39:22.192Z,19.12
2023-03-05T03:40:22.788Z,19.16
2023-03-05T03:41:23.461Z,19.16
2023-03-05T03:42:24.143Z,19.14
2023-03-05T03:43:24.744Z,19.18
2023-03-05T03:44:25.351Z,19.08
2023-03-05T03:45:25.988Z,19.08
2023-03-05T03:46:26.657Z,19.12
2023-03-05T03:47:27.254Z,19.12
2023-03-05T03:48:27.848Z,19.02
2023-03-05T03:49:28.561Z,19.11
2023-03-05T03:50:29.157Z,19.07
2023-03-05T03:51:29.758Z,19.11
2023-03-05T03:52:30.371Z,19.09
2023-03-05T03:53:30.964Z,19.15
2023-03-05T03:54:31.558Z,19.02
2023-03-05T03:55:32.152Z,19.04
2023-03-05T03:56:32.747Z,19.04
2023-03-05T03:57:33.399Z,19.04
2023-03-05T03:58:33.995Z,19.09
2023-03-05T03:59:34.603Z,19.04
2023-03-05T04:00:35.202Z,19.09
2023-03-05T04:01:35.859Z,18.98
2023-03-05T04:02:36.557Z,19.00
2023-03-05T04:03:37.182Z,18.99
2023-03-05T04:04:37.811Z,19.02
2023-03-05T04:05:38.554Z,19.07
2023-03-05T04:06:39.154Z,19.02
2023-03-05T04:07:39.813Z,18.92
2023-03-05T04:08:40.408Z,19.04
2023-03-05T04:09:41.017Z,18.96
2023-03-05T04:10:41.616Z,19.02
2023-03-05T04:11:42.220Z,19.00
2023-03-05T04:12:42.825Z,19.00
2023-03-05T04:13:43.472Z,18.86
2023-03-05T04:14:44.073Z,18.99
2023-03-05T04:15:44.697Z,19.02
2023-03-05T04:16:45.362Z,18.86
2023-03-05T04:17:45.956Z,18.95
2023-03-05T04:18:46.631Z,18.86
2023-03-05T04:19:47.231Z,18.90
2023-03-05T04:20:47.842Z,18.86
2023-03-05T04:21:48.440Z,18.92
2023-03-05T04:22:49.031Z,18.88
2023-03-05T04:23:49.624Z,18.89
2023-03-05T04:24:50.221Z,18.96
2023-03-05T04:25:50.827Z,18.89
2023-03-05T04:26:51.436Z,18.95
2023-03-05T04:27:52.019Z,18.92
2023-03-05T04:28:52.623Z,18.98
2023-03-05T04:29:53.218Z,18.93
2023-03-05T04:30:53.833Z,18.90
2023-03-05T04:31:54.425Z,18.95
2023-03-05T04:32:55.032Z,18.95
2023-03-05T04:33:55.623Z,18.90
2023-03-05T04:34:56.240Z,18.88
2023-03-05T04:35:56.885Z,18.88
2023-03-05T04:36:57.527Z,18.88
2023-03-05T04:37:58.132Z,18.90
2023-03-05T04:38:58.736Z,18.88
2023-03-05T04:39:59.346Z,18.86
2023-03-05T04:40:59.938Z,18.89
2023-03-05T04:42:00.552Z,18.81
2023-03-05T04:43:01.940Z,18.92
2023-03-05T04:44:03.386Z,18.83
2023-03-05T04:45:04.051Z,18.89
2023-03-05T04:46:04.837Z,18.90
2023-03-05T04:47:05.369Z,18.86
2023-03-05T04:48:05.973Z,18.90
2023-03-05T04:49:06.583Z,18.84
2023-03-05T04:50:07.189Z,18.74
2023-03-05T04:51:07.791Z,18.88
2023-03-05T04:52:08.387Z,18.80
2023-03-05T04:53:08.994Z,18.73
2023-03-05T04:54:09.594Z,18.84
2023-03-05T04:55:10.198Z,18.80
2023-03-05T04:56:10.808Z,18.80
2023-03-05T04:57:11.437Z,18.89
2023-03-05T04:58:12.032Z,18.81
2023-03-05T04:59:12.635Z,18.75
2023-03-05T05:00:13.240Z,18.77
2023-03-05T05:01:13.832Z,18.81
2023-03-05T05:02:15.282Z,18.81
2023-03-05T05:03:15.967Z,18.81
2023-03-05T05:04:16.641Z,18.78
2023-03-05T05:05:17.240Z,18.77
2023-03-05T05:06:17.850Z,18.83
2023-03-05T05:07:18.447Z,18.77
2023-03-05T05:08:19.050Z,18.75
2023-03-05T05:09:19.650Z,18.77
2023-03-05T05:10:20.248Z,18.78
2023-03-05T05:11:20.844Z,18.74
2023-03-05T05:12:21.442Z,18.75
2023-03-05T05:13:22.036Z,18.75
2023-03-05T05:14:22.633Z,18.75
2023-03-05T05:15:23.282Z,18.75
2023-03-05T05:16:23.920Z,18.73
2023-03-05T05:17:24.578Z,18.71
2023-03-05T05:18:25.188Z,18.77
2023-03-05T05:19:25.904Z,18.74
2023-03-05T05:20:26.493Z,18.74
2023-03-05T05:21:27.091Z,18.75
2023-03-05T05:22:27.688Z,18.74
2023-03-05T05:23:28.285Z,18.73
2023-03-05T05:24:28.885Z,18.75
2023-03-05T05:25:29.487Z,18.70
2023-03-05T05:26:30.085Z,18.66
2023-03-05T05:27:30.680Z,18.73
2023-03-05T05:28:31.278Z,18.62
2023-03-05T05:29:31.877Z,18.73
2023-03-05T05:30:32.472Z,18.75
2023-03-05T05:31:33.078Z,18.73
2023-03-05T05:32:33.738Z,18.63
2023-03-05T05:33:34.337Z,18.71
2023-03-05T05:34:34.955Z,18.70
2023-03-05T05:35:35.611Z,18.74
2023-03-05T05:36:36.217Z,18.63
2023-03-05T05:37:36.831Z,18.75
2023-03-05T05:38:37.478Z,18.63
2023-03-05T05:39:38.080Z,18.63
2023-03-05T05:40:38.698Z,18.65
2023-03-05T05:41:39.284Z,18.66
2023-03-05T05:42:39.882Z,18.66
2023-03-05T05:43:40.477Z,18.62
2023-03-05T05:44:41.074Z,18.65
2023-03-05T05:45:41.840Z,18.70
2023-03-05T05:46:42.561Z,18.62
2023-03-05T05:47:43.147Z,18.66
2023-03-05T05:48:43.754Z,18.63
2023-03-05T05:49:44.357Z,18.60
2023-03-05T05:50:44.953Z,18.62
2023-03-05T05:51:45.559Z,18.65
2023-03-05T05:52:46.198Z,18.65
2023-03-05T05:53:46.791Z,18.59
2023-03-05T05:54:47.450Z,18.56
2023-03-05T05:55:48.048Z,18.59
2023-03-05T05:56:48.646Z,18.65
2023-03-05T05:57:49.261Z,18.59
2023-03-05T05:58:49.918Z,18.62
2023-03-05T05:59:50.511Z,18.63
2023-03-05T06:00:51.108Z,18.62
2023-03-05T06:01:51.789Z,18.65
2023-03-05T06:02:53.277Z,18.68
2023-03-05T06:03:53.912Z,18.62
2023-03-05T06:04:55.784Z,18.63
2023-03-05T06:05:55.222Z,18.60
2023-03-05T06:06:55.823Z,18.62
2023-03-05T06:07:56.484Z,18.58
2023-03-05T06:08:57.083Z,18.68
2023-03-05T06:09:57.684Z,18.66
2023-03-05T06:10:58.296Z,18.59
2023-03-05T06:11:58.884Z,18.62
2023-03-05T06:12:59.480Z,18.60
2023-03-05T06:14:00.136Z,18.58
2023-03-05T06:15:00.718Z,18.58
2023-03-05T06:16:01.417Z,18.59
2023-03-05T06:17:02.018Z,18.59
2023-03-05T06:18:02.611Z,18.63
2023-03-05T06:19:04.311Z,18.59
2023-03-05T06:20:04.870Z,18.53
2023-03-05T06:21:05.457Z,18.65
2023-03-05T06:22:06.059Z,18.68
2023-03-05T06:23:06.655Z,18.58
2023-03-05T06:24:07.273Z,18.53
2023-03-05T06:25:07.937Z,18.56
2023-03-05T06:26:08.607Z,18.53
2023-03-05T06:27:09.216Z,18.49
2023-03-05T06:28:09.804Z,18.53
2023-03-05T06:29:10.411Z,18.56
2023-03-05T06:30:11.006Z,18.56
2023-03-05T06:31:11.767Z,18.58
2023-03-05T06:32:12.501Z,18.55
2023-03-05T06:33:13.154Z,18.60
2023-03-05T06:34:13.807Z,18.53
2023-03-05T06:35:14.406Z,18.56
2023-03-05T06:36:15.001Z,18.56
2023-03-05T06:37:15.603Z,18.59
2023-03-05T06:38:16.195Z,18.65
2023-03-05T06:39:16.789Z,18.53
2023-03-05T06:40:17.388Z,18.55
2023-03-05T06:41:18.043Z,18.59
2023-03-05T06:42:18.636Z,18.60
2023-03-05T06:43:19.239Z,18.53
2023-03-05T06:44:19.842Z,18.53
2023-03-05T06:45:20.445Z,18.53
2023-03-05T06:46:21.147Z,18.47
2023-03-05T06:47:21.750Z,18.47
2023-03-05T06:48:22.351Z,18.50
2023-03-05T06:49:22.949Z,18.45
2023-03-05T06:50:23.544Z,18.55
2023-03-05T06:51:24.142Z,18.55
2023-03-05T06:52:24.744Z,18.53
2023-03-05T06:53:25.339Z,18.49
2023-03-05T06:54:25.935Z,18.55
2023-03-05T06:55:26.533Z,18.53
2023-03-05T06:56:27.173Z,18.47
2023-03-05T06:57:28.624Z,18.58
2023-03-05T06:58:29.219Z,18.59
2023-03-05T06:59:29.814Z,18.53
2023-03-05T07:00:30.466Z,18.58
2023-03-05T07:01:31.117Z,18.58
2023-03-05T07:02:31.885Z,18.60
2023-03-05T07:03:32.490Z,18.45
2023-03-05T07:04:33.095Z,18.55
2023-03-05T07:05:34.302Z,18.55
2023-03-05T07:06:34.438Z,18.55
2023-03-05T07:07:35.033Z,18.52
2023-03-05T07:08:35.630Z,18.55
2023-03-05T07:09:36.234Z,18.56
2023-03-05T07:10:36.827Z,18.53
2023-03-05T07:11:37.431Z,18.49
2023-03-05T07:12:38.029Z,18.49
2023-03-05T07:13:38.632Z,18.45
2023-03-05T07:14:39.252Z,18.52
2023-03-05T07:15:39.913Z,18.45
2023-03-05T07:16:40.561Z,18.45
2023-03-05T07:17:41.224Z,18.45
2023-03-05T07:18:41.832Z,18.41
2023-03-05T07:19:42.424Z,18.44
2023-03-05T07:20:43.028Z,18.41
2023-03-05T07:21:43.627Z,18.45
2023-03-05T07:22:44.227Z,18.43
2023-03-05T07:23:44.846Z,18.43
2023-03-05T07:24:45.434Z,18.44
2023-03-05T07:25:46.040Z,18.44
2023-03-05T07:26:48.871Z,18.43
2023-03-05T07:27:48.219Z,18.44
2023-03-05T07:28:48.893Z,18.43
2023-03-05T07:29:49.483Z,18.45
2023-03-05T07:30:50.141Z,18.45
2023-03-05T07:31:50.731Z,18.41
2023-03-05T07:32:51.330Z,18.43
2023-03-05T07:33:51.993Z,18.45
2023-03-05T07:34:52.701Z,18.45
2023-03-05T07:35:53.417Z,18.38
2023-03-05T07:36:54.069Z,18.41
2023-03-05T07:37:54.691Z,18.41
2023-03-05T07:38:55.334Z,18.41
2023-03-05T07:39:55.937Z,18.35
2023-03-05T07:40:56.533Z,18.41
2023-03-05T07:41:57.187Z,18.38
2023-03-05T07:42:57.797Z,18.44
2023-03-05T07:43:58.399Z,18.40
2023-03-05T07:44:59.052Z,18.38
2023-03-05T07:45:59.678Z,18.37
2023-03-05T07:47:00.267Z,18.43
2023-03-05T07:48:00.862Z,18.40
2023-03-05T07:49:01.465Z,18.41
2023-03-05T07:50:02.058Z,18.45
2023-03-05T07:51:02.689Z,18.45
2023-03-05T07:52:03.270Z,18.40
2023-03-05T07:53:03.872Z,18.41
2023-03-05T07:54:04.465Z,18.38
2023-03-05T07:55:05.067Z,18.44
2023-03-05T07:56:05.724Z,18.41
2023-03-05T07:57:06.329Z,18.40
2023-03-05T07:58:06.926Z,18.45
2023-03-05T07:59:07.531Z,18.34
2023-03-05T08:00:08.139Z,18.38
2023-03-05T08:01:08.738Z,18.35
2023-03-05T08:02:09.445Z,18.41
2023-03-05T08:03:10.039Z,18.37
2023-03-05T08:04:10.716Z,18.38
2023-03-05T08:05:11.291Z,18.37
2023-03-05T08:06:11.894Z,18.31
2023-03-05T08:07:12.498Z,18.37
2023-03-05T08:08:13.104Z,18.43
2023-03-05T08:09:13.699Z,18.41
2023-03-05T08:10:14.312Z,18.33
2023-03-05T08:11:14.998Z,18.33
2023-03-05T08:12:15.585Z,18.34
2023-03-05T08:13:16.205Z,18.34
2023-03-05T08:14:16.809Z,18.37
2023-03-05T08:15:17.411Z,18.33
2023-03-05T08:16:18.042Z,18.31
2023-03-05T08:17:18.742Z,18.31
2023-03-05T08:18:19.436Z,18.28
2023-03-05T08:19:20.000Z,18.33
2023-03-05T08:20:20.594Z,18.33
2023-03-05T08:21:21.210Z,18.31
2023-03-05T08:22:21.860Z,18.35
2023-03-05T08:23:22.469Z,18.28
2023-03-05T08:24:23.064Z,18.33
2023-03-05T08:25:23.673Z,18.29
2023-03-05T08:26:24.266Z,18.34
2023-03-05T08:27:24.860Z,18.31
2023-03-05T08:28:25.457Z,18.34
2023-03-05T08:29:26.051Z,18.34
2023-03-05T08:30:26.653Z,18.34
2023-03-05T08:31:27.345Z,18.31
2023-03-05T08:32:28.002Z,18.31
2023-03-05T08:33:31.155Z,18.25
2023-03-05T08:34:30.219Z,18.28
2023-03-05T08:35:30.823Z,18.33
2023-03-05T08:36:31.449Z,18.34
2023-03-05T08:37:32.091Z,18.25
2023-03-05T08:38:32.691Z,18.34
2023-03-05T08:39:33.291Z,18.26
2023-03-05T08:40:33.894Z,18.28
2023-03-05T08:41:34.495Z,18.29
2023-03-05T08:42:35.099Z,18.33
2023-03-05T08:43:35.762Z,18.28
2023-03-05T08:44:36.402Z,18.35
2023-03-05T08:45:37.004Z,18.29
2023-03-05T08:46:37.691Z,18.28
2023-03-05T08:47:38.320Z,18.26
2023-03-05T08:48:38.927Z,18.26
2023-03-05T08:49:39.657Z,18.35
2023-03-05T08:50:40.250Z,18.28
2023-03-05T08:51:40.907Z,18.29
2023-03-05T08:52:41.514Z,18.35
2023-03-05T08:53:42.190Z,18.31
2023-03-05T08:54:42.785Z,18.28
2023-03-05T08:55:44.273Z,18.31
2023-03-05T08:56:45.729Z,18.29
2023-03-05T08:57:46.340Z,18.34
2023-03-05T08:58:46.933Z,18.28
2023-03-05T08:59:47.551Z,18.37
2023-03-05T09:00:48.127Z,18.35
2023-03-05T09:01:48.730Z,18.35
2023-03-05T09:02:49.353Z,18.31
2023-03-05T09:03:49.962Z,18.35
2023-03-05T09:04:50.567Z,18.33
2023-03-05T09:05:51.958Z,18.38
2023-03-05T09:06:52.557Z,18.35
2023-03-05T09:07:53.264Z,18.37
2023-03-05T09:08:53.873Z,18.29
2023-03-05T09:09:54.478Z,18.34
2023-03-05T09:10:55.070Z,18.35
2023-03-05T09:11:55.668Z,18.31
2023-03-05T09:12:56.271Z,18.31
2023-03-05T09:13:56.865Z,18.33
2023-03-05T09:14:57.469Z,18.31
2023-03-05T09:15:58.110Z,18.33
2023-03-05T09:16:58.721Z,18.29
2023-03-05T09:17:59.324Z,18.38
2023-03-05T09:18:59.911Z,18.31
2023-03-05T09:20:00.504Z,18.37
2023-03-05T09:21:01.109Z,18.38
2023-03-05T09:22:01.718Z,18.33
2023-03-05T09:23:02.377Z,18.34
2023-03-05T09:24:02.974Z,18.37
2023-03-05T09:25:03.567Z,18.31
2023-03-05T09:26:04.164Z,18.31
2023-03-05T09:27:04.761Z,18.23
2023-03-05T09:28:05.356Z,18.33
2023-03-05T09:29:05.971Z,18.35
2023-03-05T09:30:06.575Z,18.34
2023-03-05T09:31:07.167Z,18.34
2023-03-05T09:32:07.972Z,18.22
2023-03-05T09:33:08.602Z,18.28
2023-03-05T09:34:09.195Z,18.28
2023-03-05T09:35:09.791Z,18.29
2023-03-05T09:36:10.397Z,18.38
2023-03-05T09:37:11.010Z,18.31
2023-03-05T09:38:11.600Z,18.25
2023-03-05T09:39:12.208Z,18.25
2023-03-05T09:40:12.791Z,18.37
2023-03-05T09:41:13.383Z,18.28
2023-03-05T09:42:13.978Z,18.23
2023-03-05T09:43:14.573Z,18.33
2023-03-05T09:44:15.177Z,18.33
2023-03-05T09:45:15.774Z,18.31
2023-03-05T09:46:17.328Z,18.29
2023-03-05T09:47:17.965Z,18.31
2023-03-05T09:48:19.421Z,18.31
2023-03-05T09:49:20.023Z,18.34
2023-03-05T09:50:20.668Z,18.34
2023-03-05T09:51:21.269Z,18.23
2023-03-05T09:52:21.946Z,18.31
2023-03-05T09:53:22.536Z,18.29
2023-03-05T09:54:23.140Z,18.29
2023-03-05T09:55:23.744Z,18.25
2023-03-05T09:56:24.471Z,18.26
2023-03-05T09:57:25.066Z,18.34
2023-03-05T09:58:25.661Z,18.25
2023-03-05T09:59:26.261Z,18.29
2023-03-05T10:00:26.858Z,18.26
2023-03-05T10:01:27.470Z,18.28
2023-03-05T10:02:28.068Z,18.34
2023-03-05T10:03:28.738Z,18.25
2023-03-05T10:04:29.442Z,18.22
2023-03-05T10:05:30.058Z,18.25
2023-03-05T10:06:30.648Z,18.25
2023-03-05T10:07:31.267Z,18.25
2023-03-05T10:08:31.860Z,18.25
2023-03-05T10:09:32.466Z,18.26
2023-03-05T10:10:33.064Z,18.23
2023-03-05T10:11:33.668Z,18.29
2023-03-05T10:12:34.271Z,18.22
2023-03-05T10:13:34.863Z,18.34
2023-03-05T10:14:35.475Z,18.33
2023-03-05T10:15:36.999Z,18.31
2023-03-05T10:16:37.667Z,18.23
2023-03-05T10:17:38.266Z,18.33
2023-03-05T10:18:38.870Z,18.31
2023-03-05T10:19:39.531Z,18.33
2023-03-05T10:20:40.134Z,18.31
2023-03-05T10:21:40.787Z,18.37
2023-03-05T10:22:41.385Z,18.35
2023-03-05T10:23:42.048Z,18.40
2023-03-05T10:24:42.652Z,18.33
2023-03-05T10:25:43.249Z,18.34
2023-03-05T10:26:43.846Z,18.37
2023-03-05T10:27:44.454Z,18.31
2023-03-05T10:28:45.046Z,18.35
2023-03-05T10:29:45.653Z,18.31
2023-03-05T10:30:46.255Z,18.35
2023-03-05T10:31:46.870Z,18.37
2023-03-05T10:32:47.493Z,18.38
2023-03-05T10:33:48.134Z,18.43
2023-03-05T10:34:48.732Z,18.40
2023-03-05T10:35:49.353Z,18.43
2023-03-05T10:36:49.935Z,18.38
2023-03-05T10:37:50.613Z,18.41
2023-03-05T10:38:51.221Z,18.35
2023-03-05T10:39:51.884Z,18.40
2023-03-05T10:40:52.486Z,18.37
2023-03-05T10:41:53.072Z,18.34
2023-03-05T10:42:53.675Z,18.34
2023-03-05T10:43:54.272Z,18.38
2023-03-05T10:44:54.866Z,18.29
2023-03-05T10:45:55.548Z,18.31
2023-03-05T10:46:56.213Z,18.33
2023-03-05T10:47:56.806Z,18.31
2023-03-05T10:48:57.420Z,18.34
2023-03-05T10:49:58.056Z,18.34
2023-03-05T10:50:58.660Z,18.23
2023-03-05T10:51:59.247Z,18.29
2023-03-05T10:52:59.910Z,18.28
2023-03-05T10:54:00.497Z,18.25
2023-03-05T10:55:01.108Z,18.29
2023-03-05T10:56:01.696Z,18.25
2023-03-05T10:57:02.290Z,18.20
2023-03-05T10:58:02.894Z,18.23
2023-03-05T10:59:03.491Z,18.23
2023-03-05T11:00:04.092Z,18.23
2023-03-05T11:01:04.731Z,18.26
2023-03-05T11:02:05.407Z,18.19
2023-03-05T11:03:06.065Z,18.20
2023-03-05T11:04:06.659Z,18.28
2023-03-05T11:05:07.322Z,18.18
2023-03-05T11:06:07.916Z,18.22
2023-03-05T11:07:08.521Z,18.20
2023-03-05T11:08:09.246Z,18.22
2023-03-05T11:09:09.842Z,18.20
2023-03-05T11:10:10.439Z,18.15
2023-03-05T11:11:11.039Z,18.20
2023-03-05T11:12:11.699Z,18.23
2023-03-05T11:13:12.410Z,18.25
2023-03-05T11:14:13.035Z,18.28
2023-03-05T11:15:13.634Z,18.22
2023-03-05T11:16:14.254Z,18.22
2023-03-05T11:17:14.856Z,18.18
2023-03-05T11:18:15.455Z,18.22
2023-03-05T11:19:16.062Z,18.22
2023-03-05T11:20:16.653Z,18.19
2023-03-05T11:21:17.250Z,18.23
2023-03-05T11:22:17.861Z,18.23
2023-03-05T11:23:18.453Z,18.20
2023-03-05T11:24:19.068Z,18.20
2023-03-05T11:25:20.513Z,18.26
2023-03-05T11:26:21.116Z,18.13
2023-03-05T11:27:21.709Z,18.26
2023-03-05T11:28:32.404Z,18.22
2023-03-05T11:29:24.761Z,18.26
2023-03-05T11:30:25.365Z,18.16
2023-03-05T11:31:26.134Z,18.18
2023-03-05T11:32:26.807Z,18.23
2023-03-05T11:33:27.431Z,18.16
2023-03-05T11:34:28.033Z,18.25
2023-03-05T11:35:28.734Z,18.25
2023-03-05T11:36:29.326Z,18.19
2023-03-05T11:37:29.921Z,18.20
2023-03-05T11:38:30.525Z,18.16
2023-03-05T11:39:31.127Z,18.20
2023-03-05T11:40:31.730Z,18.19
2023-03-05T11:41:32.407Z,18.18
2023-03-05T11:42:33.039Z,18.22
2023-03-05T11:43:33.664Z,18.16
2023-03-05T11:44:34.305Z,18.22
2023-03-05T11:45:34.909Z,18.23
2023-03-05T11:46:35.664Z,18.18
2023-03-05T11:47:36.283Z,18.15
2023-03-05T11:48:36.893Z,18.13
2023-03-05T11:49:37.484Z,18.19
2023-03-05T11:50:38.081Z,18.22
2023-03-05T11:51:38.686Z,18.20
2023-03-05T11:52:39.338Z,18.23
2023-03-05T11:53:39.942Z,18.25
2023-03-05T11:54:40.539Z,18.11
2023-03-05T11:55:41.195Z,18.23
2023-03-05T11:56:41.871Z,18.16
2023-03-05T11:57:42.476Z,18.18
2023-03-05T11:58:43.077Z,18.20
2023-03-05T11:59:44.595Z,18.16
2023-03-05T12:00:45.185Z,18.18
2023-03-05T12:01:45.791Z,18.22
2023-03-05T12:02:46.418Z,18.22
2023-03-05T12:03:47.117Z,18.22
2023-03-05T12:04:47.791Z,18.13
2023-03-05T12:05:48.383Z,18.23
2023-03-05T12:06:48.988Z,18.19
2023-03-05T12:07:49.584Z,18.22
2023-03-05T12:08:50.187Z,18.19
2023-03-05T12:09:50.827Z,18.22
2023-03-05T12:10:51.457Z,18.16
2023-03-05T12:11:52.209Z,18.13
2023-03-05T12:12:52.815Z,18.20
2023-03-05T12:13:53.491Z,18.23
2023-03-05T12:14:54.089Z,18.20
2023-03-05T12:15:54.700Z,18.20
2023-03-05T12:16:55.289Z,18.08
2023-03-05T12:17:55.894Z,18.19
2023-03-05T12:18:56.576Z,18.23
2023-03-05T12:19:57.162Z,18.16
2023-03-05T12:20:57.760Z,18.19
2023-03-05T12:21:58.365Z,18.23
2023-03-05T12:22:58.959Z,18.23
2023-03-05T12:23:59.552Z,18.18
2023-03-05T12:25:00.156Z,18.13
2023-03-05T12:26:00.750Z,18.10
2023-03-05T12:27:01.367Z,18.18
2023-03-05T12:28:01.963Z,18.18
2023-03-05T12:29:02.554Z,18.23
2023-03-05T12:30:03.161Z,18.13
2023-03-05T12:31:03.846Z,18.23
2023-03-05T12:32:04.571Z,18.13
2023-03-05T12:33:05.236Z,18.13
2023-03-05T12:34:05.949Z,18.15
2023-03-05T12:35:07.377Z,18.15
2023-03-05T12:36:08.018Z,18.13
2023-03-05T12:37:08.601Z,18.15
2023-03-05T12:38:25.839Z,18.07
2023-03-05T12:39:10.796Z,18.23
2023-03-05T12:40:11.589Z,18.13
2023-03-05T12:41:12.165Z,18.23
2023-03-05T12:42:12.762Z,18.25
2023-03-05T12:43:13.366Z,18.22
2023-03-05T12:44:13.966Z,18.20
2023-03-05T12:45:14.580Z,18.15
2023-03-05T12:46:15.266Z,18.20
2023-03-05T12:47:15.859Z,18.23
2023-03-05T12:48:16.488Z,18.11
2023-03-05T12:49:17.081Z,18.08
2023-03-05T12:50:17.688Z,18.23
2023-03-05T12:51:18.391Z,18.19
2023-03-05T12:52:18.994Z,18.11
2023-03-05T12:53:19.600Z,18.11
2023-03-05T12:54:20.193Z,18.13
2023-03-05T12:55:20.793Z,18.15
2023-03-05T12:56:21.396Z,18.22
2023-03-05T12:57:22.005Z,18.28
2023-03-05T12:58:22.607Z,18.18
2023-03-05T12:59:23.197Z,18.07
2023-03-05T13:00:23.800Z,18.08
2023-03-05T13:01:24.460Z,18.20
2023-03-05T13:02:25.050Z,18.15
2023-03-05T13:03:25.667Z,18.08